sensor_id;sensor_type;location;lat;lon;timestamp;P1;durP1;ratioP1;P2;durP2;ratioP2
20146;SDS011;10234;50.856;15.716;2023-05-07T00:00:14;5.43;;;3.72;;
20146;SDS011;10234;50.856;15.716;2023-05-07T00:02:43;4.68;;;3.33;;
20146;SDS011;10234;50.856;15.716;2023-05-07T00:05:11;6.68;;;4.28;;
20146;SDS011;10234;50.856;15.716;2023-05-07T00:07:39;5.82;;;3.33;;
20146;SDS011;10234;50.856;15.716;2023-05-07T00:10:06;6.07;;;3.95;;
20146;SDS011;10234;50.856;15.716;2023-05-07T00:12:34;5.68;;;4.18;;
20146;SDS011;10234;50.856;15.716;2023-05-07T00:15:01;7.18;;;4.25;;
20146;SDS011;10234;50.856;15.716;2023-05-07T00:17:28;5.80;;;3.72;;
20146;SDS011;10234;50.856;15.716;2023-05-07T00:19:56;5.47;;;3.70;;
20146;SDS011;10234;50.856;15.716;2023-05-07T00:22:23;4.53;;;3.60;;
20146;SDS011;10234;50.856;15.716;2023-05-07T00:24:51;6.75;;;4.28;;
20146;SDS011;10234;50.856;15.716;2023-05-07T00:27:21;6.70;;;4.55;;
20146;SDS011;10234;50.856;15.716;2023-05-07T00:29:48;7.30;;;4.72;;
20146;SDS011;10234;50.856;15.716;2023-05-07T00:32:17;8.07;;;5.20;;
20146;SDS011;10234;50.856;15.716;2023-05-07T00:34:44;7.57;;;4.43;;
20146;SDS011;10234;50.856;15.716;2023-05-07T00:37:11;7.13;;;4.55;;
20146;SDS011;10234;50.856;15.716;2023-05-07T00:39:38;6.95;;;4.45;;
20146;SDS011;10234;50.856;15.716;2023-05-07T00:42:06;6.57;;;5.03;;
20146;SDS011;10234;50.856;15.716;2023-05-07T00:44:34;6.53;;;4.45;;
20146;SDS011;10234;50.856;15.716;2023-05-07T00:47:02;6.60;;;4.70;;
20146;SDS011;10234;50.856;15.716;2023-05-07T00:49:35;6.05;;;4.32;;
20146;SDS011;10234;50.856;15.716;2023-05-07T00:52:07;6.90;;;4.72;;
20146;SDS011;10234;50.856;15.716;2023-05-07T00:54:36;8.50;;;4.40;;
20146;SDS011;10234;50.856;15.716;2023-05-07T00:57:03;6.25;;;4.55;;
20146;SDS011;10234;50.856;15.716;2023-05-07T00:59:32;6.53;;;5.45;;
20146;SDS011;10234;50.856;15.716;2023-05-07T01:02:02;6.10;;;4.40;;
20146;SDS011;10234;50.856;15.716;2023-05-07T01:04:29;5.53;;;3.85;;
20146;SDS011;10234;50.856;15.716;2023-05-07T01:06:57;9.27;;;4.50;;
20146;SDS011;10234;50.856;15.716;2023-05-07T01:09:25;4.55;;;3.75;;
20146;SDS011;10234;50.856;15.716;2023-05-07T01:11:53;5.88;;;3.88;;
20146;SDS011;10234;50.856;15.716;2023-05-07T01:14:22;5.82;;;3.90;;
20146;SDS011;10234;50.856;15.716;2023-05-07T01:16:51;5.72;;;3.28;;
20146;SDS011;10234;50.856;15.716;2023-05-07T01:19:18;3.90;;;2.95;;
20146;SDS011;10234;50.856;15.716;2023-05-07T01:21:47;5.85;;;3.70;;
20146;SDS011;10234;50.856;15.716;2023-05-07T01:24:16;7.10;;;4.05;;
20146;SDS011;10234;50.856;15.716;2023-05-07T01:26:44;4.50;;;3.38;;
20146;SDS011;10234;50.856;15.716;2023-05-07T01:29:11;4.15;;;3.75;;
20146;SDS011;10234;50.856;15.716;2023-05-07T01:31:38;4.93;;;3.88;;
20146;SDS011;10234;50.856;15.716;2023-05-07T01:34:10;5.57;;;3.72;;
20146;SDS011;10234;50.856;15.716;2023-05-07T01:36:39;4.25;;;3.83;;
20146;SDS011;10234;50.856;15.716;2023-05-07T01:39:08;10.73;;;4.70;;
20146;SDS011;10234;50.856;15.716;2023-05-07T01:41:37;4.45;;;2.65;;
20146;SDS011;10234;50.856;15.716;2023-05-07T01:44:04;5.43;;;4.00;;
20146;SDS011;10234;50.856;15.716;2023-05-07T01:46:32;4.65;;;3.22;;
20146;SDS011;10234;50.856;15.716;2023-05-07T01:49:01;5.57;;;3.97;;
20146;SDS011;10234;50.856;15.716;2023-05-07T01:51:31;5.03;;;3.83;;
20146;SDS011;10234;50.856;15.716;2023-05-07T01:53:59;4.97;;;3.00;;
20146;SDS011;10234;50.856;15.716;2023-05-07T01:56:26;7.03;;;4.00;;
20146;SDS011;10234;50.856;15.716;2023-05-07T01:58:54;4.80;;;3.88;;
20146;SDS011;10234;50.856;15.716;2023-05-07T02:01:21;6.38;;;3.53;;
20146;SDS011;10234;50.856;15.716;2023-05-07T02:03:48;6.78;;;3.80;;
20146;SDS011;10234;50.856;15.716;2023-05-07T02:06:15;7.68;;;4.38;;
20146;SDS011;10234;50.856;15.716;2023-05-07T02:08:42;6.47;;;4.30;;
20146;SDS011;10234;50.856;15.716;2023-05-07T02:11:09;3.70;;;3.08;;
20146;SDS011;10234;50.856;15.716;2023-05-07T02:13:36;4.65;;;3.67;;
20146;SDS011;10234;50.856;15.716;2023-05-07T02:16:05;5.35;;;3.50;;
20146;SDS011;10234;50.856;15.716;2023-05-07T02:18:32;6.55;;;4.35;;
20146;SDS011;10234;50.856;15.716;2023-05-07T02:21:00;6.03;;;3.90;;
20146;SDS011;10234;50.856;15.716;2023-05-07T02:23:27;7.75;;;3.63;;
20146;SDS011;10234;50.856;15.716;2023-05-07T02:25:54;4.72;;;3.22;;
20146;SDS011;10234;50.856;15.716;2023-05-07T02:28:21;5.53;;;4.00;;
20146;SDS011;10234;50.856;15.716;2023-05-07T02:30:48;3.78;;;3.47;;
20146;SDS011;10234;50.856;15.716;2023-05-07T02:33:17;5.95;;;3.38;;
20146;SDS011;10234;50.856;15.716;2023-05-07T02:35:44;4.60;;;3.35;;
20146;SDS011;10234;50.856;15.716;2023-05-07T02:38:10;4.78;;;3.60;;
20146;SDS011;10234;50.856;15.716;2023-05-07T02:40:37;8.80;;;4.60;;
20146;SDS011;10234;50.856;15.716;2023-05-07T02:43:04;5.80;;;3.35;;
20146;SDS011;10234;50.856;15.716;2023-05-07T02:45:32;2.95;;;2.60;;
20146;SDS011;10234;50.856;15.716;2023-05-07T02:47:59;4.63;;;2.95;;
20146;SDS011;10234;50.856;15.716;2023-05-07T02:50:28;4.18;;;3.30;;
20146;SDS011;10234;50.856;15.716;2023-05-07T02:52:54;5.43;;;3.58;;
20146;SDS011;10234;50.856;15.716;2023-05-07T02:55:22;4.75;;;3.22;;
20146;SDS011;10234;50.856;15.716;2023-05-07T02:57:49;5.25;;;3.58;;
20146;SDS011;10234;50.856;15.716;2023-05-07T03:00:16;5.18;;;3.08;;
20146;SDS011;10234;50.856;15.716;2023-05-07T03:02:44;3.47;;;2.95;;
20146;SDS011;10234;50.856;15.716;2023-05-07T03:05:13;3.53;;;3.22;;
20146;SDS011;10234;50.856;15.716;2023-05-07T03:07:41;3.35;;;2.42;;
20146;SDS011;10234;50.856;15.716;2023-05-07T03:10:13;3.97;;;3.55;;
20146;SDS011;10234;50.856;15.716;2023-05-07T03:12:40;4.07;;;3.58;;
20146;SDS011;10234;50.856;15.716;2023-05-07T03:15:08;2.83;;;2.60;;
20146;SDS011;10234;50.856;15.716;2023-05-07T03:17:36;4.90;;;2.85;;
20146;SDS011;10234;50.856;15.716;2023-05-07T03:20:03;3.20;;;2.90;;
20146;SDS011;10234;50.856;15.716;2023-05-07T03:22:32;1.73;;;1.63;;
20146;SDS011;10234;50.856;15.716;2023-05-07T03:25:01;3.65;;;2.58;;
20146;SDS011;10234;50.856;15.716;2023-05-07T03:27:27;3.42;;;2.22;;
20146;SDS011;10234;50.856;15.716;2023-05-07T03:29:57;2.95;;;2.58;;
20146;SDS011;10234;50.856;15.716;2023-05-07T03:32:24;4.40;;;2.05;;
20146;SDS011;10234;50.856;15.716;2023-05-07T03:34:51;2.47;;;2.30;;
20146;SDS011;10234;50.856;15.716;2023-05-07T03:37:18;2.72;;;2.00;;
20146;SDS011;10234;50.856;15.716;2023-05-07T03:39:46;2.47;;;2.28;;
20146;SDS011;10234;50.856;15.716;2023-05-07T03:42:17;3.47;;;1.73;;
20146;SDS011;10234;50.856;15.716;2023-05-07T03:44:44;1.98;;;1.88;;
20146;SDS011;10234;50.856;15.716;2023-05-07T03:47:12;1.85;;;1.75;;
20146;SDS011;10234;50.856;15.716;2023-05-07T03:49:39;1.60;;;1.30;;
20146;SDS011;10234;50.856;15.716;2023-05-07T03:52:06;1.67;;;1.42;;
20146;SDS011;10234;50.856;15.716;2023-05-07T03:54:33;1.75;;;1.48;;
20146;SDS011;10234;50.856;15.716;2023-05-07T03:57:00;2.53;;;2.00;;
20146;SDS011;10234;50.856;15.716;2023-05-07T03:59:30;2.05;;;1.85;;
20146;SDS011;10234;50.856;15.716;2023-05-07T04:01:57;2.22;;;1.88;;
20146;SDS011;10234;50.856;15.716;2023-05-07T04:04:25;2.47;;;1.85;;
20146;SDS011;10234;50.856;15.716;2023-05-07T04:06:51;2.78;;;1.95;;
20146;SDS011;10234;50.856;15.716;2023-05-07T04:09:20;5.45;;;1.95;;
20146;SDS011;10234;50.856;15.716;2023-05-07T04:11:47;1.77;;;1.42;;
20146;SDS011;10234;50.856;15.716;2023-05-07T04:14:13;1.88;;;1.60;;
20146;SDS011;10234;50.856;15.716;2023-05-07T04:16:44;2.72;;;1.38;;
20146;SDS011;10234;50.856;15.716;2023-05-07T04:19:11;3.53;;;2.00;;
20146;SDS011;10234;50.856;15.716;2023-05-07T04:21:38;2.25;;;1.95;;
20146;SDS011;10234;50.856;15.716;2023-05-07T04:24:05;2.08;;;1.88;;
20146;SDS011;10234;50.856;15.716;2023-05-07T04:26:32;2.60;;;1.27;;
20146;SDS011;10234;50.856;15.716;2023-05-07T04:28:59;2.10;;;1.95;;
20146;SDS011;10234;50.856;15.716;2023-05-07T04:31:26;4.90;;;1.42;;
20146;SDS011;10234;50.856;15.716;2023-05-07T04:33:55;3.25;;;1.80;;
20146;SDS011;10234;50.856;15.716;2023-05-07T04:36:24;3.08;;;1.88;;
20146;SDS011;10234;50.856;15.716;2023-05-07T04:38:52;1.90;;;1.70;;
20146;SDS011;10234;50.856;15.716;2023-05-07T04:41:19;2.63;;;1.02;;
20146;SDS011;10234;50.856;15.716;2023-05-07T04:43:46;1.70;;;1.60;;
20146;SDS011;10234;50.856;15.716;2023-05-07T04:46:13;2.22;;;1.33;;
20146;SDS011;10234;50.856;15.716;2023-05-07T04:48:40;1.35;;;1.25;;
20146;SDS011;10234;50.856;15.716;2023-05-07T04:51:09;1.73;;;1.45;;
20146;SDS011;10234;50.856;15.716;2023-05-07T04:53:36;1.38;;;1.27;;
20146;SDS011;10234;50.856;15.716;2023-05-07T04:56:04;1.55;;;1.45;;
20146;SDS011;10234;50.856;15.716;2023-05-07T04:58:30;2.22;;;1.67;;
20146;SDS011;10234;50.856;15.716;2023-05-07T05:00:58;1.45;;;1.35;;
20146;SDS011;10234;50.856;15.716;2023-05-07T05:03:27;1.20;;;0.98;;
20146;SDS011;10234;50.856;15.716;2023-05-07T05:05:55;2.10;;;1.77;;
20146;SDS011;10234;50.856;15.716;2023-05-07T05:08:25;1.60;;;1.50;;
20146;SDS011;10234;50.856;15.716;2023-05-07T05:10:52;1.42;;;1.33;;
20146;SDS011;10234;50.856;15.716;2023-05-07T05:13:19;1.60;;;1.50;;
20146;SDS011;10234;50.856;15.716;2023-05-07T05:15:46;1.63;;;1.50;;
20146;SDS011;10234;50.856;15.716;2023-05-07T05:18:14;2.55;;;1.50;;
20146;SDS011;10234;50.856;15.716;2023-05-07T05:20:40;1.83;;;1.48;;
20146;SDS011;10234;50.856;15.716;2023-05-07T05:23:07;1.48;;;1.27;;
20146;SDS011;10234;50.856;15.716;2023-05-07T05:25:36;2.00;;;1.80;;
20146;SDS011;10234;50.856;15.716;2023-05-07T05:28:04;4.78;;;1.60;;
20146;SDS011;10234;50.856;15.716;2023-05-07T05:30:31;1.73;;;1.63;;
20146;SDS011;10234;50.856;15.716;2023-05-07T05:32:58;1.95;;;1.48;;
20146;SDS011;10234;50.856;15.716;2023-05-07T05:35:25;1.70;;;1.60;;
20146;SDS011;10234;50.856;15.716;2023-05-07T05:37:52;2.03;;;1.65;;
20146;SDS011;10234;50.856;15.716;2023-05-07T05:40:19;2.85;;;2.10;;
20146;SDS011;10234;50.856;15.716;2023-05-07T05:42:47;4.53;;;1.90;;
20146;SDS011;10234;50.856;15.716;2023-05-07T05:45:14;2.00;;;1.80;;
20146;SDS011;10234;50.856;15.716;2023-05-07T05:47:42;2.17;;;1.98;;
20146;SDS011;10234;50.856;15.716;2023-05-07T05:50:09;1.77;;;1.67;;
20146;SDS011;10234;50.856;15.716;2023-05-07T05:52:36;2.08;;;1.85;;
20146;SDS011;10234;50.856;15.716;2023-05-07T05:55:04;2.08;;;1.88;;
20146;SDS011;10234;50.856;15.716;2023-05-07T05:57:31;2.30;;;2.08;;
20146;SDS011;10234;50.856;15.716;2023-05-07T06:00:00;1.67;;;1.58;;
20146;SDS011;10234;50.856;15.716;2023-05-07T06:02:27;2.30;;;2.05;;
20146;SDS011;10234;50.856;15.716;2023-05-07T06:04:54;2.13;;;1.95;;
20146;SDS011;10234;50.856;15.716;2023-05-07T06:07:22;1.70;;;1.52;;
20146;SDS011;10234;50.856;15.716;2023-05-07T06:09:48;2.25;;;1.77;;
20146;SDS011;10234;50.856;15.716;2023-05-07T06:12:16;3.58;;;2.30;;
20146;SDS011;10234;50.856;15.716;2023-05-07T06:14:43;2.10;;;1.77;;
20146;SDS011;10234;50.856;15.716;2023-05-07T06:17:11;1.92;;;1.73;;
20146;SDS011;10234;50.856;15.716;2023-05-07T06:19:38;5.78;;;2.13;;
20146;SDS011;10234;50.856;15.716;2023-05-07T06:22:05;1.83;;;1.73;;
20146;SDS011;10234;50.856;15.716;2023-05-07T06:24:32;2.83;;;2.63;;
20146;SDS011;10234;50.856;15.716;2023-05-07T06:27:00;1.52;;;1.42;;
20146;SDS011;10234;50.856;15.716;2023-05-07T06:29:27;1.80;;;1.70;;
20146;SDS011;10234;50.856;15.716;2023-05-07T06:31:56;1.73;;;1.52;;
20146;SDS011;10234;50.856;15.716;2023-05-07T06:34:33;1.67;;;1.58;;
20146;SDS011;10234;50.856;15.716;2023-05-07T06:37:00;1.25;;;1.05;;
20146;SDS011;10234;50.856;15.716;2023-05-07T06:39:27;2.15;;;1.77;;
20146;SDS011;10234;50.856;15.716;2023-05-07T06:41:54;1.77;;;1.67;;
20146;SDS011;10234;50.856;15.716;2023-05-07T06:44:27;2.00;;;1.77;;
20146;SDS011;10234;50.856;15.716;2023-05-07T06:46:54;2.95;;;1.75;;
20146;SDS011;10234;50.856;15.716;2023-05-07T06:49:21;1.45;;;1.35;;
20146;SDS011;10234;50.856;15.716;2023-05-07T06:51:50;2.65;;;2.28;;
20146;SDS011;10234;50.856;15.716;2023-05-07T06:54:17;2.50;;;1.73;;
20146;SDS011;10234;50.856;15.716;2023-05-07T06:56:45;1.30;;;1.20;;
20146;SDS011;10234;50.856;15.716;2023-05-07T06:59:12;1.83;;;1.67;;
20146;SDS011;10234;50.856;15.716;2023-05-07T07:01:39;2.05;;;1.85;;
20146;SDS011;10234;50.856;15.716;2023-05-07T07:04:06;1.60;;;1.50;;
20146;SDS011;10234;50.856;15.716;2023-05-07T07:06:33;2.15;;;1.77;;
20146;SDS011;10234;50.856;15.716;2023-05-07T07:09:02;2.15;;;2.03;;
20146;SDS011;10234;50.856;15.716;2023-05-07T07:11:29;2.60;;;2.15;;
20146;SDS011;10234;50.856;15.716;2023-05-07T07:13:56;2.58;;;2.38;;
20146;SDS011;10234;50.856;15.716;2023-05-07T07:16:24;2.03;;;1.80;;
20146;SDS011;10234;50.856;15.716;2023-05-07T07:18:51;2.90;;;2.08;;
20146;SDS011;10234;50.856;15.716;2023-05-07T07:21:18;2.67;;;2.25;;
20146;SDS011;10234;50.856;15.716;2023-05-07T07:23:45;2.65;;;1.95;;
20146;SDS011;10234;50.856;15.716;2023-05-07T07:26:13;2.45;;;2.25;;
20146;SDS011;10234;50.856;15.716;2023-05-07T07:28:43;2.13;;;1.92;;
20146;SDS011;10234;50.856;15.716;2023-05-07T07:31:10;2.38;;;2.10;;
20146;SDS011;10234;50.856;15.716;2023-05-07T07:33:37;2.90;;;1.98;;
20146;SDS011;10234;50.856;15.716;2023-05-07T07:36:05;2.28;;;2.10;;
20146;SDS011;10234;50.856;15.716;2023-05-07T07:38:32;2.45;;;1.80;;
20146;SDS011;10234;50.856;15.716;2023-05-07T07:41:00;2.67;;;1.80;;
20146;SDS011;10234;50.856;15.716;2023-05-07T07:43:35;2.47;;;1.98;;
20146;SDS011;10234;50.856;15.716;2023-05-07T07:46:03;2.58;;;2.38;;
20146;SDS011;10234;50.856;15.716;2023-05-07T07:48:30;2.20;;;2.00;;
20146;SDS011;10234;50.856;15.716;2023-05-07T07:50:57;4.20;;;1.67;;
20146;SDS011;10234;50.856;15.716;2023-05-07T07:53:24;2.20;;;2.00;;
20146;SDS011;10234;50.856;15.716;2023-05-07T07:55:51;2.80;;;2.10;;
20146;SDS011;10234;50.856;15.716;2023-05-07T07:58:18;3.08;;;1.80;;
20146;SDS011;10234;50.856;15.716;2023-05-07T08:00:46;2.47;;;2.28;;
20146;SDS011;10234;50.856;15.716;2023-05-07T08:03:13;3.10;;;1.88;;
20146;SDS011;10234;50.856;15.716;2023-05-07T08:05:41;2.10;;;1.92;;
20146;SDS011;10234;50.856;15.716;2023-05-07T08:08:08;2.95;;;2.15;;
20146;SDS011;10234;50.856;15.716;2023-05-07T08:10:38;2.03;;;1.77;;
20146;SDS011;10234;50.856;15.716;2023-05-07T08:13:05;2.20;;;2.10;;
20146;SDS011;10234;50.856;15.716;2023-05-07T08:15:32;2.25;;;1.73;;
20146;SDS011;10234;50.856;15.716;2023-05-07T08:18:01;1.27;;;1.17;;
20146;SDS011;10234;50.856;15.716;2023-05-07T08:20:28;2.88;;;1.63;;
20146;SDS011;10234;50.856;15.716;2023-05-07T08:22:55;1.65;;;1.45;;
20146;SDS011;10234;50.856;15.716;2023-05-07T08:25:22;1.35;;;1.25;;
20146;SDS011;10234;50.856;15.716;2023-05-07T08:27:49;2.60;;;1.60;;
20146;SDS011;10234;50.856;15.716;2023-05-07T08:30:16;2.13;;;1.92;;
20146;SDS011;10234;50.856;15.716;2023-05-07T08:32:44;3.50;;;1.88;;
20146;SDS011;10234;50.856;15.716;2023-05-07T08:35:12;2.35;;;2.15;;
20146;SDS011;10234;50.856;15.716;2023-05-07T08:37:39;1.77;;;1.65;;
20146;SDS011;10234;50.856;15.716;2023-05-07T08:40:06;2.50;;;1.70;;
20146;SDS011;10234;50.856;15.716;2023-05-07T08:42:35;2.05;;;1.88;;
20146;SDS011;10234;50.856;15.716;2023-05-07T08:45:03;2.08;;;1.70;;
20146;SDS011;10234;50.856;15.716;2023-05-07T08:47:40;2.55;;;2.17;;
20146;SDS011;10234;50.856;15.716;2023-05-07T08:50:10;6.00;;;2.13;;
20146;SDS011;10234;50.856;15.716;2023-05-07T08:52:40;2.60;;;2.25;;
20146;SDS011;10234;50.856;15.716;2023-05-07T08:55:07;2.72;;;2.13;;
20146;SDS011;10234;50.856;15.716;2023-05-07T08:57:35;2.42;;;1.95;;
20146;SDS011;10234;50.856;15.716;2023-05-07T09:00:02;3.60;;;2.70;;
20146;SDS011;10234;50.856;15.716;2023-05-07T09:02:29;2.38;;;2.17;;
20146;SDS011;10234;50.856;15.716;2023-05-07T09:04:56;3.63;;;2.70;;
20146;SDS011;10234;50.856;15.716;2023-05-07T09:07:23;2.80;;;1.90;;
20146;SDS011;10234;50.856;15.716;2023-05-07T09:09:52;2.33;;;2.08;;
20146;SDS011;10234;50.856;15.716;2023-05-07T09:12:20;2.33;;;2.15;;
20146;SDS011;10234;50.856;15.716;2023-05-07T09:14:47;2.00;;;1.83;;
20146;SDS011;10234;50.856;15.716;2023-05-07T09:17:15;3.55;;;2.45;;
20146;SDS011;10234;50.856;15.716;2023-05-07T09:19:42;2.88;;;2.65;;
20146;SDS011;10234;50.856;15.716;2023-05-07T09:22:10;2.72;;;2.42;;
20146;SDS011;10234;50.856;15.716;2023-05-07T09:24:37;3.90;;;2.75;;
20146;SDS011;10234;50.856;15.716;2023-05-07T09:27:05;3.55;;;2.90;;
20146;SDS011;10234;50.856;15.716;2023-05-07T09:29:35;3.38;;;2.78;;
20146;SDS011;10234;50.856;15.716;2023-05-07T09:32:03;3.58;;;2.72;;
20146;SDS011;10234;50.856;15.716;2023-05-07T09:34:31;4.85;;;3.03;;
20146;SDS011;10234;50.856;15.716;2023-05-07T09:36:58;4.55;;;2.78;;
20146;SDS011;10234;50.856;15.716;2023-05-07T09:39:25;2.92;;;2.70;;
20146;SDS011;10234;50.856;15.716;2023-05-07T09:41:52;4.07;;;3.00;;
20146;SDS011;10234;50.856;15.716;2023-05-07T09:44:21;3.60;;;2.70;;
20146;SDS011;10234;50.856;15.716;2023-05-07T09:46:50;3.60;;;3.28;;
20146;SDS011;10234;50.856;15.716;2023-05-07T09:49:20;4.00;;;2.75;;
20146;SDS011;10234;50.856;15.716;2023-05-07T09:51:49;3.65;;;2.63;;
20146;SDS011;10234;50.856;15.716;2023-05-07T09:54:17;5.22;;;3.38;;
20146;SDS011;10234;50.856;15.716;2023-05-07T09:56:44;3.05;;;2.70;;
20146;SDS011;10234;50.856;15.716;2023-05-07T09:59:12;4.55;;;3.75;;
20146;SDS011;10234;50.856;15.716;2023-05-07T10:01:42;3.38;;;2.22;;
20146;SDS011;10234;50.856;15.716;2023-05-07T10:04:10;2.97;;;2.75;;
20146;SDS011;10234;50.856;15.716;2023-05-07T10:06:37;3.47;;;3.17;;
20146;SDS011;10234;50.856;15.716;2023-05-07T10:09:05;3.42;;;3.13;;
20146;SDS011;10234;50.856;15.716;2023-05-07T10:11:32;5.93;;;2.88;;
20146;SDS011;10234;50.856;15.716;2023-05-07T10:13:59;5.38;;;3.47;;
20146;SDS011;10234;50.856;15.716;2023-05-07T10:16:27;3.95;;;3.05;;
20146;SDS011;10234;50.856;15.716;2023-05-07T10:18:56;2.97;;;2.78;;
20146;SDS011;10234;50.856;15.716;2023-05-07T10:21:24;3.15;;;2.58;;
20146;SDS011;10234;50.856;15.716;2023-05-07T10:23:56;3.60;;;2.28;;
20146;SDS011;10234;50.856;15.716;2023-05-07T10:26:25;2.42;;;2.17;;
20146;SDS011;10234;50.856;15.716;2023-05-07T10:28:54;3.13;;;2.30;;
20146;SDS011;10234;50.856;15.716;2023-05-07T10:31:31;3.47;;;2.95;;
20146;SDS011;10234;50.856;15.716;2023-05-07T10:34:09;3.28;;;2.70;;
20146;SDS011;10234;50.856;15.716;2023-05-07T10:36:39;7.25;;;2.90;;
20146;SDS011;10234;50.856;15.716;2023-05-07T10:39:07;3.67;;;3.38;;
20146;SDS011;10234;50.856;15.716;2023-05-07T10:41:34;4.20;;;2.95;;
20146;SDS011;10234;50.856;15.716;2023-05-07T10:44:01;3.95;;;2.60;;
20146;SDS011;10234;50.856;15.716;2023-05-07T10:46:29;4.00;;;3.13;;
20146;SDS011;10234;50.856;15.716;2023-05-07T10:49:11;5.38;;;4.20;;
20146;SDS011;10234;50.856;15.716;2023-05-07T10:51:38;4.55;;;3.47;;
20146;SDS011;10234;50.856;15.716;2023-05-07T10:54:18;3.58;;;3.28;;
20146;SDS011;10234;50.856;15.716;2023-05-07T10:56:46;3.60;;;3.28;;
20146;SDS011;10234;50.856;15.716;2023-05-07T10:59:34;2.50;;;2.30;;
20146;SDS011;10234;50.856;15.716;2023-05-07T11:02:07;2.95;;;1.75;;
20146;SDS011;10234;50.856;15.716;2023-05-07T11:04:37;2.45;;;2.25;;
20146;SDS011;10234;50.856;15.716;2023-05-07T11:07:25;2.35;;;2.15;;
20146;SDS011;10234;50.856;15.716;2023-05-07T11:10:00;1.85;;;1.75;;
20146;SDS011;10234;50.856;15.716;2023-05-07T11:12:46;2.10;;;1.90;;
20146;SDS011;10234;50.856;15.716;2023-05-07T11:15:13;1.80;;;1.70;;
20146;SDS011;10234;50.856;15.716;2023-05-07T11:17:52;2.50;;;2.30;;
20146;SDS011;10234;50.856;15.716;2023-05-07T11:20:21;2.63;;;1.98;;
20146;SDS011;10234;50.856;15.716;2023-05-07T11:26:46;2.80;;;2.42;;
20146;SDS011;10234;50.856;15.716;2023-05-07T11:29:15;2.58;;;2.38;;
20146;SDS011;10234;50.856;15.716;2023-05-07T11:31:43;3.22;;;2.88;;
20146;SDS011;10234;50.856;15.716;2023-05-07T11:34:10;2.50;;;2.30;;
20146;SDS011;10234;50.856;15.716;2023-05-07T11:36:42;3.25;;;2.78;;
20146;SDS011;10234;50.856;15.716;2023-05-07T11:39:25;10.82;;;3.58;;
20146;SDS011;10234;50.856;15.716;2023-05-07T11:41:53;4.65;;;3.25;;
20146;SDS011;10234;50.856;15.716;2023-05-07T11:44:20;2.35;;;2.15;;
20146;SDS011;10234;50.856;15.716;2023-05-07T11:46:48;4.30;;;3.13;;
20146;SDS011;10234;50.856;15.716;2023-05-07T11:49:15;3.30;;;3.00;;
20146;SDS011;10234;50.856;15.716;2023-05-07T11:51:44;3.30;;;2.90;;
20146;SDS011;10234;50.856;15.716;2023-05-07T11:54:11;4.70;;;3.25;;
20146;SDS011;10234;50.856;15.716;2023-05-07T11:56:43;4.68;;;3.97;;
20146;SDS011;10234;50.856;15.716;2023-05-07T11:59:12;3.28;;;2.92;;
20146;SDS011;10234;50.856;15.716;2023-05-07T12:01:39;4.03;;;3.60;;
20146;SDS011;10234;50.856;15.716;2023-05-07T12:04:06;5.68;;;4.30;;
20146;SDS011;10234;50.856;15.716;2023-05-07T12:06:35;4.35;;;3.53;;
20146;SDS011;10234;50.856;15.716;2023-05-07T12:09:05;5.53;;;4.22;;
20146;SDS011;10234;50.856;15.716;2023-05-07T12:11:36;5.22;;;3.38;;
20146;SDS011;10234;50.856;15.716;2023-05-07T12:14:05;3.00;;;2.70;;
20146;SDS011;10234;50.856;15.716;2023-05-07T12:16:32;3.53;;;2.83;;
20146;SDS011;10234;50.856;15.716;2023-05-07T12:19:00;3.10;;;2.78;;
20146;SDS011;10234;50.856;15.716;2023-05-07T12:21:27;3.88;;;3.55;;
20146;SDS011;10234;50.856;15.716;2023-05-07T12:23:54;3.70;;;3.25;;
20146;SDS011;10234;50.856;15.716;2023-05-07T12:26:22;2.83;;;2.63;;
20146;SDS011;10234;50.856;15.716;2023-05-07T12:28:50;3.53;;;3.20;;
20146;SDS011;10234;50.856;15.716;2023-05-07T12:31:17;3.22;;;2.92;;
20146;SDS011;10234;50.856;15.716;2023-05-07T12:33:44;4.15;;;3.70;;
20146;SDS011;10234;50.856;15.716;2023-05-07T12:36:12;4.10;;;3.70;;
20146;SDS011;10234;50.856;15.716;2023-05-07T12:38:40;7.55;;;3.55;;
20146;SDS011;10234;50.856;15.716;2023-05-07T12:41:08;4.25;;;3.85;;
20146;SDS011;10234;50.856;15.716;2023-05-07T12:43:38;5.03;;;4.40;;
20146;SDS011;10234;50.856;15.716;2023-05-07T12:46:07;5.05;;;4.55;;
20146;SDS011;10234;50.856;15.716;2023-05-07T12:48:35;5.70;;;4.45;;
20146;SDS011;10234;50.856;15.716;2023-05-07T12:51:03;4.00;;;3.70;;
20146;SDS011;10234;50.856;15.716;2023-05-07T12:53:32;7.63;;;5.20;;
20146;SDS011;10234;50.856;15.716;2023-05-07T12:55:59;5.25;;;3.90;;
20146;SDS011;10234;50.856;15.716;2023-05-07T12:58:26;4.10;;;3.70;;
20146;SDS011;10234;50.856;15.716;2023-05-07T13:00:56;5.03;;;4.53;;
20146;SDS011;10234;50.856;15.716;2023-05-07T13:03:26;5.70;;;4.90;;
20146;SDS011;10234;50.856;15.716;2023-05-07T13:05:54;5.43;;;4.45;;
20146;SDS011;10234;50.856;15.716;2023-05-07T13:08:25;6.22;;;4.10;;
20146;SDS011;10234;50.856;15.716;2023-05-07T13:10:54;4.95;;;4.07;;
20146;SDS011;10234;50.856;15.716;2023-05-07T13:13:23;5.20;;;3.88;;
20146;SDS011;10234;50.856;15.716;2023-05-07T13:15:50;6.85;;;4.55;;
20146;SDS011;10234;50.856;15.716;2023-05-07T13:18:19;6.22;;;4.53;;
20146;SDS011;10234;50.856;15.716;2023-05-07T13:20:46;6.20;;;4.43;;
20146;SDS011;10234;50.856;15.716;2023-05-07T13:23:13;5.95;;;5.30;;
20146;SDS011;10234;50.856;15.716;2023-05-07T13:25:40;5.57;;;4.40;;
20146;SDS011;10234;50.856;15.716;2023-05-07T13:28:07;4.15;;;3.75;;
20146;SDS011;10234;50.856;15.716;2023-05-07T13:30:34;5.38;;;4.00;;
20146;SDS011;10234;50.856;15.716;2023-05-07T13:33:01;7.05;;;4.97;;
20146;SDS011;10234;50.856;15.716;2023-05-07T13:35:30;4.68;;;4.13;;
20146;SDS011;10234;50.856;15.716;2023-05-07T13:37:57;7.57;;;5.25;;
20146;SDS011;10234;50.856;15.716;2023-05-07T13:40:24;4.22;;;3.70;;
20146;SDS011;10234;50.856;15.716;2023-05-07T13:42:51;4.63;;;4.07;;
20146;SDS011;10234;50.856;15.716;2023-05-07T13:45:19;3.63;;;3.13;;
20146;SDS011;10234;50.856;15.716;2023-05-07T13:47:46;3.47;;;3.17;;
20146;SDS011;10234;50.856;15.716;2023-05-07T13:50:14;5.25;;;3.78;;
20146;SDS011;10234;50.856;15.716;2023-05-07T13:52:43;4.57;;;3.47;;
20146;SDS011;10234;50.856;15.716;2023-05-07T13:55:15;4.32;;;3.72;;
20146;SDS011;10234;50.856;15.716;2023-05-07T13:57:42;4.78;;;3.50;;
20146;SDS011;10234;50.856;15.716;2023-05-07T14:00:10;7.00;;;3.88;;
20146;SDS011;10234;50.856;15.716;2023-05-07T14:02:37;4.18;;;3.55;;
20146;SDS011;10234;50.856;15.716;2023-05-07T14:05:05;4.05;;;3.17;;
20146;SDS011;10234;50.856;15.716;2023-05-07T14:07:32;4.15;;;3.75;;
20146;SDS011;10234;50.856;15.716;2023-05-07T14:10:01;3.05;;;2.72;;
20146;SDS011;10234;50.856;15.716;2023-05-07T14:12:28;2.65;;;2.45;;
20146;SDS011;10234;50.856;15.716;2023-05-07T14:14:56;3.45;;;2.30;;
20146;SDS011;10234;50.856;15.716;2023-05-07T14:17:23;3.33;;;2.80;;
20146;SDS011;10234;50.856;15.716;2023-05-07T14:19:52;3.22;;;2.88;;
20146;SDS011;10234;50.856;15.716;2023-05-07T14:22:19;3.22;;;2.92;;
20146;SDS011;10234;50.856;15.716;2023-05-07T14:24:47;3.63;;;2.58;;
20146;SDS011;10234;50.856;15.716;2023-05-07T14:27:15;3.80;;;2.42;;
20146;SDS011;10234;50.856;15.716;2023-05-07T14:29:43;2.90;;;2.70;;
20146;SDS011;10234;50.856;15.716;2023-05-07T14:32:10;2.58;;;2.38;;
20146;SDS011;10234;50.856;15.716;2023-05-07T14:34:38;3.53;;;2.72;;
20146;SDS011;10234;50.856;15.716;2023-05-07T14:37:05;3.08;;;1.73;;
20146;SDS011;10234;50.856;15.716;2023-05-07T14:39:32;3.00;;;2.70;;
20146;SDS011;10234;50.856;15.716;2023-05-07T14:41:59;2.63;;;2.42;;